Time;durP1;ratioP1;P1;durP2;ratioP2;P2;SDS_P1;SDS_P2;PMS_P1;PMS_P2;Temp;Humidity;BMP_temperature;BMP_pressure;BME280_temperature;BME280_humidity;BME280_pressure;Samples;Min_cycle;Max_cycle;Signal;HPM_P1;HPM_P2
2022/06/28 19:39:48;;;;;;;6.85;5.28;;;;;;;25.68;61.28;100301.49;2472614;77;26054;-80
2022/06/28 19:43:26;;;;;;;6.45;5.30;;;;;;;25.61;61.47;100307.54;2356271;82;25754;-79
2022/06/28 19:47:01;;;;;;;6.72;4.97;;;;;;;25.59;61.16;100340.59;2309950;82;26080;-83
2022/06/28 19:50:33;;;;;;;6.03;5.45;;;;;;;25.53;61.04;100339.02;2325746;83;25665;-83
2022/06/28 19:54:11;;;;;;;7.00;5.22;;;;;;;25.46;61.43;100327.32;2353259;82;25790;-84
2022/06/28 19:58:06;;;;;;;5.53;5.12;;;;;;;25.39;61.21;100318.67;2349413;82;25872;-88
2022/06/28 20:01:34;;;;;;;6.60;5.62;;;;;;;25.32;61.26;100326.05;2261924;86;32461;-85
2022/06/28 20:08:48;;;;;;;7.50;5.90;;;;;;;25.14;61.78;100337.40;2259520;85;25668;-82
2022/06/28 20:12:48;;;;;;;;;;;;;;;;;;;;;
2022/06/28 20:16:36;;;;;;;7.20;5.50;;;;;;;25.16;62.23;100347.09;2064266;91;26384;-89
2022/06/28 20:20:44;;;;;;;;;;;;;;;;;;;;;
2022/06/28 20:24:50;;;;;;;;;;;;;;;;;;;;;
2022/06/28 20:29:06;;;;;;;8.00;6.62;;;;;;;25.09;62.49;100366.89;2012465;96;25419;-90
2022/06/28 20:33:37;;;;;;;;;;;;;;;;;;;;;
2022/06/28 20:37:41;;;;;;;;;;;;;;;;;;;;;
2022/06/28 21:00:28;;;;;;;6.58;6.08;;;;;;;25.10;62.95;100369.09;1833830;105;26287;-86
2022/06/28 21:21:13;;;;;;;7.40;6.75;;;;;;;24.87;64.01;100397.48;1834716;105;26444;-91
2022/06/28 21:25:03;;;;;;;;;;;;;;;;;;;;;
2022/06/28 21:28:33;;;;;;;;;;;;;;;;;;;;;
2022/06/28 21:32:22;;;;;;;8.03;7.35;;;;;;;24.67;64.90;100426.59;1826970;106;25642;-89
2022/06/28 21:36:16;;;;;;;;;;;;;;;;;;;;;
2022/06/28 21:39:29;;;;;;;8.33;7.50;;;;;;;24.52;65.22;100416.47;1769134;109;25970;-87
2022/06/28 21:46:35;;;;;;;10.85;7.95;;;;;;;24.51;65.63;100422.27;1735421;110;26068;-85
2022/06/28 21:50:01;;;;;;;11.40;7.12;;;;;;;24.49;65.79;100422.76;1766605;109;25923;-84
2022/06/28 21:53:26;;;;;;;8.98;8.15;;;;;;;24.43;65.87;100426.95;1834065;104;25927;-84
2022/06/28 21:57:10;;;;;;;7.50;7.00;;;;;;;24.39;65.85;100423.95;1858842;103;25486;-86
2022/06/28 22:00:49;;;;;;;8.08;7.42;;;;;;;24.42;65.78;100428.75;1832171;106;25910;-86
2022/06/28 22:04:23;;;;;;;6.97;6.40;;;;;;;24.43;65.85;100435.81;1845861;105;26010;-85
2022/06/28 22:08:11;;;;;;;;;;;;;;;;;;;;;
2022/06/28 22:15:23;;;;;;;8.25;6.50;;;;;;;24.18;65.35;100419.73;1775893;109;25993;-85
2022/06/28 22:19:11;;;;;;;7.37;6.58;;;;;;;23.90;65.89;100418.87;1741157;112;26501;-87
2022/06/28 22:22:39;;;;;;;8.08;6.22;;;;;;;23.67;66.45;100402.22;1685100;115;26054;-87
2022/06/28 22:26:23;;;;;;;7.83;6.28;;;;;;;23.71;66.71;100405.23;;;;
2022/06/28 22:35:34;;;;;;;;;;;;;;;;;;;;;
2022/06/28 22:39:40;;;;;;;7.05;6.40;;;;;;;23.91;65.96;100408.16;1685855;115;26095;-83
2022/06/28 22:43:20;;;;;;;9.13;5.87;;;;;;;23.80;66.33;100399.64;1698883;114;26014;-84
2022/06/28 22:47:18;;;;;;;;;;;;;;;;;;;;;
2022/06/28 22:50:54;;;;;;;6.62;6.03;;;;;;;23.77;66.54;100411.25;1749545;110;26046;-84
2022/06/28 22:54:27;;;;;;;7.72;6.15;;;;;;;23.74;66.60;100421.11;1766220;110;25939;-84
2022/06/28 23:06:31;;;;;;;6.47;5.20;;;;;;;23.99;65.94;100420.76;;;;
2022/06/28 23:20:07;;;;;;;6.70;6.00;;;;;;;23.91;65.72;100441.44;1713331;111;25903;-85
2022/06/28 23:23:44;;;;;;;7.20;5.50;;;;;;;23.91;65.72;100436.11;1762625;109;25485;-85
2022/06/28 23:27:22;;;;;;;5.65;5.15;;;;;;;24.04;65.53;100441.94;1773300;109;26150;-85
2022/06/28 23:30:57;;;;;;;7.65;6.53;;;;;;;24.01;65.44;100434.05;1780482;109;25899;-85
2022/06/28 23:34:33;;;;;;;9.03;6.60;;;;;;;23.94;65.42;100440.48;1722493;113;25854;-84
2022/06/28 23:52:43;;;;;;;10.20;7.10;;;;;;;23.63;66.68;100437.37;1628825;118;25451;-85
2022/06/28 23:56:29;;;;;;;;;;;;;;;;;;;;;
